sensor_id;sensor_type;location;lat;lon;timestamp;P1;durP1;ratioP1;P2;durP2;ratioP2
26261;SDS011;13988;52.446;13.280;2023-09-19T00:00:19;1.90;;;1.40;;
26261;SDS011;13988;52.446;13.280;2023-09-19T00:02:51;1.33;;;1.05;;
26261;SDS011;13988;52.446;13.280;2023-09-19T00:05:18;1.58;;;1.10;;
26261;SDS011;13988;52.446;13.280;2023-09-19T00:07:44;0.80;;;0.80;;
26261;SDS011;13988;52.446;13.280;2023-09-19T00:10:10;3.03;;;1.58;;
26261;SDS011;13988;52.446;13.280;2023-09-19T00:12:35;1.52;;;1.27;;
26261;SDS011;13988;52.446;13.280;2023-09-19T00:15:01;4.80;;;1.45;;
26261;SDS011;13988;52.446;13.280;2023-09-19T00:17:30;1.85;;;1.45;;
26261;SDS011;13988;52.446;13.280;2023-09-19T00:19:56;3.00;;;1.52;;
26261;SDS011;13988;52.446;13.280;2023-09-19T00:22:22;1.90;;;1.20;;
26261;SDS011;13988;52.446;13.280;2023-09-19T00:24:50;1.60;;;1.17;;
26261;SDS011;13988;52.446;13.280;2023-09-19T00:27:16;4.53;;;1.33;;
26261;SDS011;13988;52.446;13.280;2023-09-19T00:29:43;1.75;;;0.98;;
26261;SDS011;13988;52.446;13.280;2023-09-19T00:32:09;4.20;;;1.40;;
26261;SDS011;13988;52.446;13.280;2023-09-19T00:34:34;2.40;;;1.52;;
26261;SDS011;13988;52.446;13.280;2023-09-19T00:37:00;2.03;;;1.17;;
26261;SDS011;13988;52.446;13.280;2023-09-19T00:39:26;1.67;;;1.27;;
26261;SDS011;13988;52.446;13.280;2023-09-19T00:41:52;1.70;;;1.40;;
26261;SDS011;13988;52.446;13.280;2023-09-19T00:44:19;2.40;;;1.05;;
26261;SDS011;13988;52.446;13.280;2023-09-19T00:46:48;5.10;;;1.33;;
26261;SDS011;13988;52.446;13.280;2023-09-19T00:49:15;2.88;;;1.58;;
26261;SDS011;13988;52.446;13.280;2023-09-19T00:51:41;1.30;;;1.10;;
26261;SDS011;13988;52.446;13.280;2023-09-19T00:54:10;1.23;;;0.93;;
26261;SDS011;13988;52.446;13.280;2023-09-19T00:56:38;3.83;;;1.25;;
26261;SDS011;13988;52.446;13.280;2023-09-19T00:59:05;1.92;;;0.93;;
26261;SDS011;13988;52.446;13.280;2023-09-19T01:01:31;1.52;;;1.30;;
26261;SDS011;13988;52.446;13.280;2023-09-19T01:03:57;1.52;;;1.08;;
26261;SDS011;13988;52.446;13.280;2023-09-19T01:06:23;3.20;;;1.20;;
26261;SDS011;13988;52.446;13.280;2023-09-19T01:08:49;5.57;;;1.10;;
26261;SDS011;13988;52.446;13.280;2023-09-19T01:11:17;3.35;;;1.30;;
26261;SDS011;13988;52.446;13.280;2023-09-19T01:22:04;1.42;;;1.33;;
26261;SDS011;13988;52.446;13.280;2023-09-19T01:30:14;2.92;;;1.30;;
26261;SDS011;13988;52.446;13.280;2023-09-19T01:32:47;1.17;;;1.05;;
26261;SDS011;13988;52.446;13.280;2023-09-19T01:35:17;2.28;;;1.10;;
26261;SDS011;13988;52.446;13.280;2023-09-19T01:37:43;2.17;;;1.50;;
26261;SDS011;13988;52.446;13.280;2023-09-19T01:40:10;2.13;;;1.00;;
26261;SDS011;13988;52.446;13.280;2023-09-19T01:42:49;0.95;;;0.95;;
26261;SDS011;13988;52.446;13.280;2023-09-19T01:48:38;3.58;;;1.20;;
26261;SDS011;13988;52.446;13.280;2023-09-19T01:51:16;4.10;;;1.52;;
26261;SDS011;13988;52.446;13.280;2023-09-19T01:53:51;1.40;;;1.30;;
26261;SDS011;13988;52.446;13.280;2023-09-19T01:59:17;1.45;;;1.05;;
26261;SDS011;13988;52.446;13.280;2023-09-19T02:01:49;1.10;;;1.02;;
26261;SDS011;13988;52.446;13.280;2023-09-19T02:04:18;2.20;;;1.27;;
26261;SDS011;13988;52.446;13.280;2023-09-19T02:06:43;2.50;;;1.00;;
26261;SDS011;13988;52.446;13.280;2023-09-19T02:09:12;2.50;;;1.35;;
26261;SDS011;13988;52.446;13.280;2023-09-19T02:11:39;1.40;;;1.30;;
26261;SDS011;13988;52.446;13.280;2023-09-19T02:14:06;1.80;;;1.65;;
26261;SDS011;13988;52.446;13.280;2023-09-19T02:16:33;2.85;;;1.10;;
26261;SDS011;13988;52.446;13.280;2023-09-19T02:18:59;5.07;;;1.52;;
26261;SDS011;13988;52.446;13.280;2023-09-19T02:21:25;5.18;;;1.40;;
26261;SDS011;13988;52.446;13.280;2023-09-19T02:23:54;8.30;;;1.40;;
26261;SDS011;13988;52.446;13.280;2023-09-19T02:26:20;4.72;;;1.23;;
26261;SDS011;13988;52.446;13.280;2023-09-19T02:28:47;4.72;;;1.30;;
26261;SDS011;13988;52.446;13.280;2023-09-19T02:31:12;0.93;;;0.85;;
26261;SDS011;13988;52.446;13.280;2023-09-19T02:33:38;1.50;;;1.20;;
26261;SDS011;13988;52.446;13.280;2023-09-19T02:36:04;1.48;;;1.27;;
26261;SDS011;13988;52.446;13.280;2023-09-19T02:38:30;4.57;;;1.70;;
26261;SDS011;13988;52.446;13.280;2023-09-19T02:40:56;2.47;;;1.55;;
26261;SDS011;13988;52.446;13.280;2023-09-19T02:43:22;3.05;;;1.35;;
26261;SDS011;13988;52.446;13.280;2023-09-19T02:45:48;3.30;;;1.20;;
26261;SDS011;13988;52.446;13.280;2023-09-19T02:48:22;3.08;;;1.20;;
26261;SDS011;13988;52.446;13.280;2023-09-19T02:50:50;2.92;;;1.30;;
26261;SDS011;13988;52.446;13.280;2023-09-19T02:53:16;3.85;;;1.23;;
26261;SDS011;13988;52.446;13.280;2023-09-19T02:55:42;1.35;;;1.08;;
26261;SDS011;13988;52.446;13.280;2023-09-19T02:58:08;1.45;;;1.30;;
26261;SDS011;13988;52.446;13.280;2023-09-19T03:00:35;1.48;;;1.00;;
26261;SDS011;13988;52.446;13.280;2023-09-19T03:03:02;2.72;;;1.20;;
26261;SDS011;13988;52.446;13.280;2023-09-19T03:05:28;1.55;;;1.17;;
26261;SDS011;13988;52.446;13.280;2023-09-19T03:07:57;1.08;;;0.73;;
26261;SDS011;13988;52.446;13.280;2023-09-19T03:10:25;2.20;;;0.90;;
26261;SDS011;13988;52.446;13.280;2023-09-19T03:12:51;1.77;;;1.23;;
26261;SDS011;13988;52.446;13.280;2023-09-19T03:15:17;1.63;;;1.23;;
26261;SDS011;13988;52.446;13.280;2023-09-19T03:17:47;0.82;;;0.82;;
26261;SDS011;13988;52.446;13.280;2023-09-19T03:20:13;1.40;;;1.30;;
26261;SDS011;13988;52.446;13.280;2023-09-19T03:22:42;2.33;;;1.35;;
26261;SDS011;13988;52.446;13.280;2023-09-19T03:25:09;6.03;;;1.13;;
26261;SDS011;13988;52.446;13.280;2023-09-19T03:27:38;1.80;;;0.90;;
26261;SDS011;13988;52.446;13.280;2023-09-19T03:30:04;4.53;;;1.45;;
26261;SDS011;13988;52.446;13.280;2023-09-19T03:32:33;2.25;;;1.00;;
26261;SDS011;13988;52.446;13.280;2023-09-19T03:35:00;2.70;;;1.40;;
26261;SDS011;13988;52.446;13.280;2023-09-19T03:37:26;11.15;;;1.80;;
26261;SDS011;13988;52.446;13.280;2023-09-19T03:39:51;3.03;;;1.08;;
26261;SDS011;13988;52.446;13.280;2023-09-19T03:42:17;2.33;;;1.20;;
26261;SDS011;13988;52.446;13.280;2023-09-19T03:44:43;1.20;;;1.00;;
26261;SDS011;13988;52.446;13.280;2023-09-19T03:47:08;2.95;;;0.90;;
26261;SDS011;13988;52.446;13.280;2023-09-19T03:49:34;2.55;;;1.30;;
26261;SDS011;13988;52.446;13.280;2023-09-19T03:52:00;1.98;;;1.38;;
26261;SDS011;13988;52.446;13.280;2023-09-19T03:54:25;1.27;;;1.00;;
26261;SDS011;13988;52.446;13.280;2023-09-19T03:56:51;1.55;;;1.30;;
26261;SDS011;13988;52.446;13.280;2023-09-19T03:59:17;1.10;;;0.93;;
26261;SDS011;13988;52.446;13.280;2023-09-19T04:01:43;2.58;;;0.90;;
26261;SDS011;13988;52.446;13.280;2023-09-19T04:04:09;0.70;;;0.70;;
26261;SDS011;13988;52.446;13.280;2023-09-19T04:06:34;1.00;;;0.90;;
26261;SDS011;13988;52.446;13.280;2023-09-19T04:09:01;1.20;;;1.10;;
26261;SDS011;13988;52.446;13.280;2023-09-19T04:11:32;1.30;;;1.20;;
26261;SDS011;13988;52.446;13.280;2023-09-19T04:13:58;4.70;;;1.33;;
26261;SDS011;13988;52.446;13.280;2023-09-19T04:16:24;2.83;;;0.98;;
26261;SDS011;13988;52.446;13.280;2023-09-19T04:18:49;1.17;;;0.80;;
26261;SDS011;13988;52.446;13.280;2023-09-19T04:21:15;1.80;;;1.70;;
26261;SDS011;13988;52.446;13.280;2023-09-19T04:23:41;1.17;;;0.90;;
26261;SDS011;13988;52.446;13.280;2023-09-19T04:26:08;1.00;;;0.90;;
26261;SDS011;13988;52.446;13.280;2023-09-19T04:28:33;1.08;;;0.90;;
26261;SDS011;13988;52.446;13.280;2023-09-19T04:30:59;2.08;;;1.05;;
26261;SDS011;13988;52.446;13.280;2023-09-19T04:33:25;1.00;;;1.00;;
26261;SDS011;13988;52.446;13.280;2023-09-19T04:35:54;2.65;;;0.82;;
26261;SDS011;13988;52.446;13.280;2023-09-19T04:38:21;2.08;;;0.90;;
26261;SDS011;13988;52.446;13.280;2023-09-19T04:40:47;4.13;;;0.90;;
26261;SDS011;13988;52.446;13.280;2023-09-19T04:43:13;0.80;;;0.77;;
26261;SDS011;13988;52.446;13.280;2023-09-19T04:45:40;1.85;;;1.30;;
26261;SDS011;13988;52.446;13.280;2023-09-19T04:48:06;1.23;;;0.98;;
26261;SDS011;13988;52.446;13.280;2023-09-19T04:50:33;1.42;;;1.10;;
26261;SDS011;13988;52.446;13.280;2023-09-19T04:52:59;1.88;;;0.90;;
26261;SDS011;13988;52.446;13.280;2023-09-19T04:55:26;0.93;;;0.90;;
26261;SDS011;13988;52.446;13.280;2023-09-19T04:57:52;1.38;;;1.05;;
26261;SDS011;13988;52.446;13.280;2023-09-19T05:00:21;5.82;;;1.48;;
26261;SDS011;13988;52.446;13.280;2023-09-19T05:02:54;3.70;;;0.90;;
26261;SDS011;13988;52.446;13.280;2023-09-19T05:05:24;1.13;;;1.02;;
26261;SDS011;13988;52.446;13.280;2023-09-19T05:07:50;1.85;;;1.00;;
26261;SDS011;13988;52.446;13.280;2023-09-19T05:10:18;0.70;;;0.70;;
26261;SDS011;13988;52.446;13.280;2023-09-19T05:12:44;2.38;;;0.98;;
26261;SDS011;13988;52.446;13.280;2023-09-19T05:15:13;1.17;;;1.08;;
26261;SDS011;13988;52.446;13.280;2023-09-19T05:17:47;2.75;;;1.20;;
26261;SDS011;13988;52.446;13.280;2023-09-19T05:20:16;1.63;;;0.80;;
26261;SDS011;13988;52.446;13.280;2023-09-19T05:23:04;1.45;;;0.98;;
26261;SDS011;13988;52.446;13.280;2023-09-19T05:25:33;1.15;;;0.75;;
26261;SDS011;13988;52.446;13.280;2023-09-19T05:28:03;1.80;;;0.95;;
26261;SDS011;13988;52.446;13.280;2023-09-19T05:30:30;1.40;;;1.30;;
26261;SDS011;13988;52.446;13.280;2023-09-19T05:32:57;1.63;;;1.02;;
26261;SDS011;13988;52.446;13.280;2023-09-19T05:35:23;1.02;;;0.93;;
26261;SDS011;13988;52.446;13.280;2023-09-19T05:37:53;2.75;;;1.08;;
26261;SDS011;13988;52.446;13.280;2023-09-19T05:40:20;1.08;;;0.98;;
26261;SDS011;13988;52.446;13.280;2023-09-19T05:42:46;3.13;;;0.95;;
26261;SDS011;13988;52.446;13.280;2023-09-19T05:45:12;1.85;;;1.00;;
26261;SDS011;13988;52.446;13.280;2023-09-19T05:47:42;1.30;;;1.05;;
26261;SDS011;13988;52.446;13.280;2023-09-19T05:50:10;1.10;;;1.00;;
26261;SDS011;13988;52.446;13.280;2023-09-19T05:52:36;1.15;;;0.90;;
26261;SDS011;13988;52.446;13.280;2023-09-19T05:55:06;5.43;;;1.08;;
26261;SDS011;13988;52.446;13.280;2023-09-19T05:57:32;3.65;;;1.40;;
26261;SDS011;13988;52.446;13.280;2023-09-19T05:59:59;1.85;;;0.90;;
26261;SDS011;13988;52.446;13.280;2023-09-19T06:02:24;1.23;;;1.08;;
26261;SDS011;13988;52.446;13.280;2023-09-19T06:04:55;1.65;;;0.82;;
26261;SDS011;13988;52.446;13.280;2023-09-19T06:07:23;1.35;;;1.08;;
26261;SDS011;13988;52.446;13.280;2023-09-19T06:09:51;1.50;;;0.73;;
26261;SDS011;13988;52.446;13.280;2023-09-19T06:12:18;1.20;;;1.10;;
26261;SDS011;13988;52.446;13.280;2023-09-19T06:14:44;1.67;;;1.02;;
26261;SDS011;13988;52.446;13.280;2023-09-19T06:17:10;6.60;;;1.13;;
26261;SDS011;13988;52.446;13.280;2023-09-19T06:19:35;1.63;;;1.33;;
26261;SDS011;13988;52.446;13.280;2023-09-19T06:22:01;5.63;;;1.08;;
26261;SDS011;13988;52.446;13.280;2023-09-19T06:24:27;2.08;;;1.17;;
26261;SDS011;13988;52.446;13.280;2023-09-19T06:26:53;1.58;;;1.15;;
26261;SDS011;13988;52.446;13.280;2023-09-19T06:29:19;1.48;;;0.85;;
26261;SDS011;13988;52.446;13.280;2023-09-19T06:31:48;3.42;;;1.30;;
26261;SDS011;13988;52.446;13.280;2023-09-19T06:34:13;1.40;;;1.00;;
26261;SDS011;13988;52.446;13.280;2023-09-19T06:36:40;1.38;;;1.15;;
26261;SDS011;13988;52.446;13.280;2023-09-19T06:39:06;1.88;;;0.95;;
26261;SDS011;13988;52.446;13.280;2023-09-19T06:41:36;1.60;;;1.20;;
26261;SDS011;13988;52.446;13.280;2023-09-19T06:44:03;2.50;;;1.45;;
26261;SDS011;13988;52.446;13.280;2023-09-19T06:46:30;3.95;;;1.00;;
26261;SDS011;13988;52.446;13.280;2023-09-19T06:48:59;1.90;;;1.38;;
26261;SDS011;13988;52.446;13.280;2023-09-19T06:51:25;1.38;;;1.05;;
26261;SDS011;13988;52.446;13.280;2023-09-19T06:53:51;1.25;;;1.15;;
26261;SDS011;13988;52.446;13.280;2023-09-19T06:56:19;1.63;;;1.00;;
26261;SDS011;13988;52.446;13.280;2023-09-19T06:58:49;3.83;;;1.48;;
26261;SDS011;13988;52.446;13.280;2023-09-19T07:01:15;2.28;;;1.05;;
26261;SDS011;13988;52.446;13.280;2023-09-19T07:03:41;2.60;;;1.30;;
26261;SDS011;13988;52.446;13.280;2023-09-19T07:06:06;2.70;;;1.75;;
26261;SDS011;13988;52.446;13.280;2023-09-19T07:08:33;2.45;;;1.27;;
26261;SDS011;13988;52.446;13.280;2023-09-19T07:10:59;2.38;;;1.35;;
26261;SDS011;13988;52.446;13.280;2023-09-19T07:13:26;3.47;;;1.08;;
26261;SDS011;13988;52.446;13.280;2023-09-19T07:15:51;2.08;;;1.50;;
26261;SDS011;13988;52.446;13.280;2023-09-19T07:18:17;2.88;;;1.65;;
26261;SDS011;13988;52.446;13.280;2023-09-19T07:20:46;2.80;;;1.67;;
26261;SDS011;13988;52.446;13.280;2023-09-19T07:23:15;1.67;;;1.30;;
26261;SDS011;13988;52.446;13.280;2023-09-19T07:25:46;2.10;;;1.65;;
26261;SDS011;13988;52.446;13.280;2023-09-19T07:28:13;2.97;;;1.52;;
26261;SDS011;13988;52.446;13.280;2023-09-19T07:30:40;3.47;;;1.52;;
26261;SDS011;13988;52.446;13.280;2023-09-19T07:33:06;2.70;;;1.60;;
26261;SDS011;13988;52.446;13.280;2023-09-19T07:35:32;1.73;;;1.40;;
26261;SDS011;13988;52.446;13.280;2023-09-19T07:37:58;3.63;;;1.67;;
26261;SDS011;13988;52.446;13.280;2023-09-19T07:40:26;5.57;;;1.85;;
26261;SDS011;13988;52.446;13.280;2023-09-19T07:42:56;3.83;;;1.90;;
26261;SDS011;13988;52.446;13.280;2023-09-19T07:45:26;5.18;;;2.05;;
26261;SDS011;13988;52.446;13.280;2023-09-19T07:47:52;8.82;;;2.03;;
26261;SDS011;13988;52.446;13.280;2023-09-19T07:50:19;1.60;;;1.50;;
26261;SDS011;13988;52.446;13.280;2023-09-19T07:52:45;3.17;;;1.58;;
26261;SDS011;13988;52.446;13.280;2023-09-19T07:55:11;4.47;;;1.60;;
26261;SDS011;13988;52.446;13.280;2023-09-19T07:57:41;2.97;;;2.00;;
26261;SDS011;13988;52.446;13.280;2023-09-19T08:00:08;4.82;;;1.73;;
26261;SDS011;13988;52.446;13.280;2023-09-19T08:02:38;2.17;;;1.65;;
26261;SDS011;13988;52.446;13.280;2023-09-19T08:05:07;6.25;;;1.77;;
26261;SDS011;13988;52.446;13.280;2023-09-19T08:07:35;1.40;;;1.30;;
26261;SDS011;13988;52.446;13.280;2023-09-19T08:10:02;4.15;;;1.55;;
26261;SDS011;13988;52.446;13.280;2023-09-19T08:12:29;4.45;;;1.73;;
26261;SDS011;13988;52.446;13.280;2023-09-19T08:14:55;2.97;;;1.60;;
26261;SDS011;13988;52.446;13.280;2023-09-19T08:17:20;1.65;;;1.30;;
26261;SDS011;13988;52.446;13.280;2023-09-19T08:19:48;1.77;;;1.60;;
26261;SDS011;13988;52.446;13.280;2023-09-19T08:22:14;3.58;;;1.58;;
26261;SDS011;13988;52.446;13.280;2023-09-19T08:24:42;4.03;;;1.80;;
26261;SDS011;13988;52.446;13.280;2023-09-19T08:27:08;2.10;;;1.23;;
26261;SDS011;13988;52.446;13.280;2023-09-19T08:29:35;3.13;;;1.55;;
26261;SDS011;13988;52.446;13.280;2023-09-19T08:32:01;1.52;;;1.42;;
26261;SDS011;13988;52.446;13.280;2023-09-19T08:34:26;4.57;;;1.35;;
26261;SDS011;13988;52.446;13.280;2023-09-19T08:36:52;1.77;;;1.55;;
26261;SDS011;13988;52.446;13.280;2023-09-19T08:39:25;2.75;;;1.75;;
26261;SDS011;13988;52.446;13.280;2023-09-19T08:42:00;3.90;;;1.67;;
26261;SDS011;13988;52.446;13.280;2023-09-19T08:44:27;4.25;;;1.90;;
26261;SDS011;13988;52.446;13.280;2023-09-19T08:47:06;3.83;;;2.00;;
26261;SDS011;13988;52.446;13.280;2023-09-19T08:52:29;2.65;;;1.77;;
26261;SDS011;13988;52.446;13.280;2023-09-19T08:55:01;2.47;;;1.55;;
26261;SDS011;13988;52.446;13.280;2023-09-19T08:57:31;3.15;;;1.45;;
26261;SDS011;13988;52.446;13.280;2023-09-19T09:00:00;9.07;;;3.00;;
26261;SDS011;13988;52.446;13.280;2023-09-19T09:02:26;2.72;;;1.90;;
26261;SDS011;13988;52.446;13.280;2023-09-19T09:04:53;2.47;;;1.67;;
26261;SDS011;13988;52.446;13.280;2023-09-19T09:07:19;5.32;;;2.13;;
26261;SDS011;13988;52.446;13.280;2023-09-19T09:09:46;3.72;;;2.33;;
26261;SDS011;13988;52.446;13.280;2023-09-19T09:12:13;4.20;;;1.80;;
26261;SDS011;13988;52.446;13.280;2023-09-19T09:14:45;3.22;;;1.65;;
26261;SDS011;13988;52.446;13.280;2023-09-19T09:17:15;6.63;;;2.33;;
26261;SDS011;13988;52.446;13.280;2023-09-19T09:19:42;3.92;;;2.15;;
26261;SDS011;13988;52.446;13.280;2023-09-19T09:22:09;3.20;;;1.80;;
26261;SDS011;13988;52.446;13.280;2023-09-19T09:24:35;4.05;;;1.83;;
26261;SDS011;13988;52.446;13.280;2023-09-19T09:27:04;2.92;;;1.83;;
26261;SDS011;13988;52.446;13.280;2023-09-19T09:29:42;5.07;;;1.60;;
26261;SDS011;13988;52.446;13.280;2023-09-19T09:32:28;5.00;;;1.80;;
26261;SDS011;13988;52.446;13.280;2023-09-19T09:34:56;2.67;;;1.73;;
26261;SDS011;13988;52.446;13.280;2023-09-19T09:37:24;3.13;;;1.77;;
26261;SDS011;13988;52.446;13.280;2023-09-19T09:39:52;4.22;;;2.63;;
26261;SDS011;13988;52.446;13.280;2023-09-19T09:42:28;6.60;;;1.98;;
26261;SDS011;13988;52.446;13.280;2023-09-19T09:47:53;3.50;;;1.67;;
26261;SDS011;13988;52.446;13.280;2023-09-19T09:50:30;7.25;;;1.77;;
26261;SDS011;13988;52.446;13.280;2023-09-19T09:53:03;4.70;;;1.55;;
26261;SDS011;13988;52.446;13.280;2023-09-19T09:58:24;4.85;;;1.90;;
26261;SDS011;13988;52.446;13.280;2023-09-19T10:00:57;7.43;;;1.80;;
26261;SDS011;13988;52.446;13.280;2023-09-19T10:03:49;3.00;;;1.92;;
26261;SDS011;13988;52.446;13.280;2023-09-19T10:06:18;2.83;;;1.30;;
26261;SDS011;13988;52.446;13.280;2023-09-19T10:11:30;2.38;;;1.52;;
26261;SDS011;13988;52.446;13.280;2023-09-19T10:13:57;4.32;;;2.08;;
26261;SDS011;13988;52.446;13.280;2023-09-19T10:16:26;4.25;;;1.65;;
26261;SDS011;13988;52.446;13.280;2023-09-19T10:18:56;2.53;;;1.60;;
26261;SDS011;13988;52.446;13.280;2023-09-19T10:21:26;2.45;;;1.73;;
26261;SDS011;13988;52.446;13.280;2023-09-19T10:23:55;2.92;;;1.75;;
26261;SDS011;13988;52.446;13.280;2023-09-19T10:26:25;3.00;;;1.70;;
26261;SDS011;13988;52.446;13.280;2023-09-19T10:28:56;3.88;;;1.77;;
26261;SDS011;13988;52.446;13.280;2023-09-19T10:31:22;4.65;;;1.92;;
26261;SDS011;13988;52.446;13.280;2023-09-19T10:33:50;3.85;;;1.45;;
26261;SDS011;13988;52.446;13.280;2023-09-19T10:36:18;2.90;;;1.73;;
26261;SDS011;13988;52.446;13.280;2023-09-19T10:38:45;5.70;;;1.77;;
26261;SDS011;13988;52.446;13.280;2023-09-19T10:41:12;3.40;;;2.20;;
26261;SDS011;13988;52.446;13.280;2023-09-19T10:43:41;7.45;;;2.40;;
26261;SDS011;13988;52.446;13.280;2023-09-19T10:46:11;2.63;;;1.55;;
26261;SDS011;13988;52.446;13.280;2023-09-19T10:48:38;3.20;;;2.00;;
26261;SDS011;13988;52.446;13.280;2023-09-19T10:53:45;5.43;;;1.77;;
26261;SDS011;13988;52.446;13.280;2023-09-19T10:56:37;6.20;;;1.48;;
26261;SDS011;13988;52.446;13.280;2023-09-19T10:59:21;5.53;;;1.60;;
26261;SDS011;13988;52.446;13.280;2023-09-19T11:01:51;6.70;;;2.13;;
26261;SDS011;13988;52.446;13.280;2023-09-19T11:04:33;1.95;;;1.55;;
26261;SDS011;13988;52.446;13.280;2023-09-19T11:07:10;6.43;;;1.63;;
26261;SDS011;13988;52.446;13.280;2023-09-19T11:09:47;4.65;;;1.55;;
26261;SDS011;13988;52.446;13.280;2023-09-19T11:14:54;3.58;;;1.70;;
26261;SDS011;13988;52.446;13.280;2023-09-19T11:30:32;7.25;;;1.60;;
26261;SDS011;13988;52.446;13.280;2023-09-19T11:35:59;2.38;;;1.33;;
26261;SDS011;13988;52.446;13.280;2023-09-19T11:43:49;2.40;;;1.20;;
26261;SDS011;13988;52.446;13.280;2023-09-19T11:49:16;2.13;;;1.25;;
26261;SDS011;13988;52.446;13.280;2023-09-19T11:51:48;3.45;;;1.20;;
26261;SDS011;13988;52.446;13.280;2023-09-19T11:54:16;4.65;;;1.45;;
26261;SDS011;13988;52.446;13.280;2023-09-19T11:56:43;2.67;;;0.98;;
26261;SDS011;13988;52.446;13.280;2023-09-19T11:59:10;2.42;;;1.20;;
26261;SDS011;13988;52.446;13.280;2023-09-19T12:01:37;1.70;;;1.02;;
26261;SDS011;13988;52.446;13.280;2023-09-19T12:04:11;2.38;;;1.23;;
26261;SDS011;13988;52.446;13.280;2023-09-19T12:06:37;1.65;;;0.95;;
26261;SDS011;13988;52.446;13.280;2023-09-19T12:09:07;1.33;;;1.08;;
26261;SDS011;13988;52.446;13.280;2023-09-19T12:11:41;2.25;;;0.95;;
26261;SDS011;13988;52.446;13.280;2023-09-19T12:14:11;3.65;;;1.33;;
26261;SDS011;13988;52.446;13.280;2023-09-19T12:16:36;3.83;;;1.20;;
26261;SDS011;13988;52.446;13.280;2023-09-19T12:19:18;3.75;;;1.70;;
26261;SDS011;13988;52.446;13.280;2023-09-19T12:21:58;1.70;;;0.75;;
26261;SDS011;13988;52.446;13.280;2023-09-19T12:24:29;2.08;;;0.98;;
26261;SDS011;13988;52.446;13.280;2023-09-19T12:27:02;2.15;;;1.30;;
26261;SDS011;13988;52.446;13.280;2023-09-19T12:29:41;1.38;;;0.82;;
26261;SDS011;13988;52.446;13.280;2023-09-19T12:32:11;2.70;;;1.02;;
26261;SDS011;13988;52.446;13.280;2023-09-19T12:34:39;0.90;;;0.90;;
26261;SDS011;13988;52.446;13.280;2023-09-19T12:37:13;2.58;;;1.20;;
26261;SDS011;13988;52.446;13.280;2023-09-19T12:39:47;3.58;;;1.23;;
26261;SDS011;13988;52.446;13.280;2023-09-19T12:44:48;4.47;;;1.50;;
26261;SDS011;13988;52.446;13.280;2023-09-19T12:47:21;1.88;;;1.08;;
26261;SDS011;13988;52.446;13.280;2023-09-19T12:52:43;1.55;;;0.90;;
26261;SDS011;13988;52.446;13.280;2023-09-19T12:55:30;5.30;;;1.40;;
26261;SDS011;13988;52.446;13.280;2023-09-19T12:57:58;3.40;;;1.08;;
26261;SDS011;13988;52.446;13.280;2023-09-19T13:00:48;0.95;;;0.85;;
26261;SDS011;13988;52.446;13.280;2023-09-19T13:09:07;4.05;;;1.00;;
26261;SDS011;13988;52.446;13.280;2023-09-19T13:11:17;0.50;;;0.50;;
26261;SDS011;13988;52.446;13.280;2023-09-19T13:14:13;1.08;;;0.90;;
26261;SDS011;13988;52.446;13.280;2023-09-19T13:16:56;1.48;;;0.77;;
26261;SDS011;13988;52.446;13.280;2023-09-19T13:19:39;5.13;;;1.10;;
26261;SDS011;13988;52.446;13.280;2023-09-19T13:25:14;2.75;;;1.08;;
26261;SDS011;13988;52.446;13.280;2023-09-19T13:27:45;1.15;;;0.90;;
26261;SDS011;13988;52.446;13.280;2023-09-19T13:30:19;4.60;;;1.50;;
26261;SDS011;13988;52.446;13.280;2023-09-19T13:32:45;1.45;;;1.02;;
26261;SDS011;13988;52.446;13.280;2023-09-19T13:35:12;1.75;;;0.68;;
26261;SDS011;13988;52.446;13.280;2023-09-19T13:37:40;1.58;;;1.08;;
26261;SDS011;13988;52.446;13.280;2023-09-19T13:42:34;1.25;;;0.93;;
26261;SDS011;13988;52.446;13.280;2023-09-19T13:45:02;1.60;;;1.00;;
26261;SDS011;13988;52.446;13.280;2023-09-19T13:47:31;2.35;;;1.02;;
26261;SDS011;13988;52.446;13.280;2023-09-19T13:49:58;1.45;;;0.85;;
26261;SDS011;13988;52.446;13.280;2023-09-19T13:52:24;2.15;;;1.00;;
26261;SDS011;13988;52.446;13.280;2023-09-19T13:54:53;3.70;;;1.08;;
26261;SDS011;13988;52.446;13.280;2023-09-19T13:57:21;3.75;;;1.20;;
26261;SDS011;13988;52.446;13.280;2023-09-19T13:59:51;3.50;;;1.90;;
26261;SDS011;13988;52.446;13.280;2023-09-19T14:02:17;2.50;;;1.33;;
26261;SDS011;13988;52.446;13.280;2023-09-19T14:04:47;1.70;;;0.90;;
26261;SDS011;13988;52.446;13.280;2023-09-19T14:07:14;1.30;;;1.20;;
26261;SDS011;13988;52.446;13.280;2023-09-19T14:09:40;2.53;;;1.10;;
26261;SDS011;13988;52.446;13.280;2023-09-19T14:12:06;2.88;;;1.02;;
26261;SDS011;13988;52.446;13.280;2023-09-19T14:14:32;2.60;;;0.88;;
26261;SDS011;13988;52.446;13.280;2023-09-19T14:16:58;2.00;;;0.88;;
26261;SDS011;13988;52.446;13.280;2023-09-19T14:19:26;1.65;;;1.10;;
26261;SDS011;13988;52.446;13.280;2023-09-19T14:21:52;1.20;;;0.85;;
26261;SDS011;13988;52.446;13.280;2023-09-19T14:24:20;1.17;;;1.08;;
26261;SDS011;13988;52.446;13.280;2023-09-19T14:26:47;2.33;;;1.27;;
26261;SDS011;13988;52.446;13.280;2023-09-19T14:29:14;1.50;;;0.90;;
26261;SDS011;13988;52.446;13.280;2023-09-19T14:31:41;3.35;;;0.90;;
26261;SDS011;13988;52.446;13.280;2023-09-19T14:34:07;2.88;;;1.23;;
26261;SDS011;13988;52.446;13.280;2023-09-19T14:36:36;3.03;;;1.30;;
26261;SDS011;13988;52.446;13.280;2023-09-19T14:39:03;1.85;;;1.05;;
26261;SDS011;13988;52.446;13.280;2023-09-19T14:41:29;4.22;;;1.13;;
26261;SDS011;13988;52.446;13.280;2023-09-19T14:43:56;3.35;;;0.88;;
26261;SDS011;13988;52.446;13.280;2023-09-19T14:46:22;1.40;;;1.20;;
26261;SDS011;13988;52.446;13.280;2023-09-19T14:48:50;4.65;;;1.40;;
26261;SDS011;13988;52.446;13.280;2023-09-19T14:51:16;2.85;;;1.08;;
26261;SDS011;13988;52.446;13.280;2023-09-19T14:53:44;4.45;;;1.58;;
26261;SDS011;13988;52.446;13.280;2023-09-19T14:56:10;2.05;;;1.33;;
26261;SDS011;13988;52.446;13.280;2023-09-19T14:58:36;2.35;;;0.95;;
26261;SDS011;13988;52.446;13.280;2023-09-19T15:01:10;1.35;;;0.98;;
26261;SDS011;13988;52.446;13.280;2023-09-19T15:03:37;2.33;;;1.33;;
26261;SDS011;13988;52.446;13.280;2023-09-19T15:06:05;2.97;;;1.20;;
26261;SDS011;13988;52.446;13.280;2023-09-19T15:08:34;3.50;;;1.10;;
26261;SDS011;13988;52.446;13.280;2023-09-19T15:11:12;1.30;;;0.98;;
26261;SDS011;13988;52.446;13.280;2023-09-19T15:13:38;5.05;;;1.17;;
26261;SDS011;13988;52.446;13.280;2023-09-19T15:16:08;5.43;;;1.55;;
26261;SDS011;13988;52.446;13.280;2023-09-19T15:18:34;2.45;;;1.30;;
26261;SDS011;13988;52.446;13.280;2023-09-19T15:21:04;4.47;;;1.50;;
26261;SDS011;13988;52.446;13.280;2023-09-19T15:23:31;3.45;;;1.00;;
26261;SDS011;13988;52.446;13.280;2023-09-19T15:26:03;2.28;;;1.45;;
26261;SDS011;13988;52.446;13.280;2023-09-19T15:28:30;3.38;;;0.75;;
26261;SDS011;13988;52.446;13.280;2023-09-19T15:31:01;4.80;;;1.30;;
26261;SDS011;13988;52.446;13.280;2023-09-19T15:33:28;2.05;;;1.35;;
26261;SDS011;13988;52.446;13.280;2023-09-19T15:38:30;1.17;;;1.00;;
26261;SDS011;13988;52.446;13.280;2023-09-19T15:40:57;2.67;;;1.38;;
26261;SDS011;13988;52.446;13.280;2023-09-19T15:43:24;3.28;;;1.05;;
26261;SDS011;13988;52.446;13.280;2023-09-19T15:45:49;2.00;;;1.20;;
26261;SDS011;13988;52.446;13.280;2023-09-19T15:48:15;2.80;;;1.10;;
26261;SDS011;13988;52.446;13.280;2023-09-19T15:50:42;1.55;;;0.73;;
26261;SDS011;13988;52.446;13.280;2023-09-19T15:53:09;1.90;;;1.00;;
26261;SDS011;13988;52.446;13.280;2023-09-19T15:55:38;3.25;;;1.83;;
26261;SDS011;13988;52.446;13.280;2023-09-19T15:58:05;2.13;;;1.42;;
26261;SDS011;13988;52.446;13.280;2023-09-19T16:00:34;4.15;;;1.33;;